createdAt,value
2023-04-26T00:01:49.164Z,1.20
2023-04-26T00:04:37.791Z,1.57
2023-04-26T00:07:26.907Z,1.97
2023-04-26T00:10:15.390Z,2.03
2023-04-26T00:13:03.824Z,1.63
2023-04-26T00:15:53.671Z,2.13
2023-04-26T00:18:42.001Z,1.27
2023-04-26T00:21:30.306Z,3.00
2023-04-26T00:24:18.687Z,2.23
2023-04-26T00:27:10.182Z,2.40
2023-04-26T00:29:58.553Z,2.30
2023-04-26T00:32:48.342Z,1.40
2023-04-26T00:35:36.681Z,3.43
2023-04-26T00:38:25.015Z,2.00
2023-04-26T00:41:13.307Z,2.87
2023-04-26T00:44:01.731Z,1.40
2023-04-26T00:46:50.929Z,1.97
2023-04-26T00:49:40.810Z,2.83
2023-04-26T00:52:29.795Z,1.30
2023-04-26T00:55:18.257Z,1.20
2023-04-26T00:58:06.490Z,1.37
2023-04-26T01:00:54.837Z,2.93
2023-04-26T01:03:44.512Z,2.10
2023-04-26T01:06:38.572Z,2.50
2023-04-26T01:09:26.918Z,1.77
2023-04-26T01:12:15.690Z,2.87
2023-04-26T01:15:05.417Z,1.20
2023-04-26T01:17:53.798Z,1.23
2023-04-26T01:20:42.994Z,1.50
2023-04-26T01:23:32.638Z,2.37
2023-04-26T01:26:21.112Z,2.67
2023-04-26T01:29:15.243Z,2.50
2023-04-26T01:32:03.807Z,3.43
2023-04-26T01:34:52.035Z,2.63
2023-04-26T01:37:40.258Z,2.80
2023-04-26T01:40:29.835Z,2.23
2023-04-26T01:43:21.130Z,2.10
2023-04-26T01:46:09.483Z,1.23
2023-04-26T01:48:57.772Z,1.37
2023-04-26T01:51:45.925Z,1.60
2023-04-26T01:54:34.262Z,1.47
2023-04-26T01:57:24.090Z,2.43
2023-04-26T02:00:13.038Z,1.27
2023-04-26T02:03:01.420Z,1.17
2023-04-26T02:05:49.804Z,1.30
2023-04-26T02:08:38.095Z,1.53
2023-04-26T02:11:27.113Z,2.10
2023-04-26T02:14:16.919Z,2.80
2023-04-26T02:17:06.452Z,2.13
2023-04-26T02:19:55.197Z,2.00
2023-04-26T02:22:43.418Z,1.20
2023-04-26T02:25:31.613Z,1.33
2023-04-26T02:28:19.888Z,2.43
2023-04-26T02:31:09.826Z,1.80
2023-04-26T02:33:58.062Z,1.50
2023-04-26T02:36:46.749Z,1.90
2023-04-26T02:39:34.979Z,3.60
2023-04-26T02:42:23.353Z,1.90
2023-04-26T02:45:11.697Z,2.10
2023-04-26T02:48:01.467Z,2.50
2023-04-26T02:50:49.685Z,1.80
2023-04-26T02:53:37.977Z,2.53
2023-04-26T02:56:26.355Z,2.00
2023-04-26T02:59:15.045Z,3.13
2023-04-26T03:02:03.359Z,1.67
2023-04-26T03:04:53.077Z,2.57
2023-04-26T03:07:41.374Z,1.30
2023-04-26T03:10:29.800Z,3.17
2023-04-26T03:13:18.034Z,2.90
2023-04-26T03:16:06.926Z,3.57
2023-04-26T03:18:55.440Z,1.53
2023-04-26T03:21:45.074Z,1.50
2023-04-26T03:24:33.402Z,2.10
2023-04-26T03:27:21.722Z,2.50
2023-04-26T03:30:10.818Z,1.83
2023-04-26T03:32:59.036Z,2.13
2023-04-26T03:35:47.399Z,2.13
2023-04-26T03:38:37.015Z,3.07
2023-04-26T03:41:25.807Z,2.37
2023-04-26T03:44:14.405Z,1.70
2023-04-26T03:47:02.800Z,2.23
2023-04-26T03:49:51.003Z,1.73
2023-04-26T03:52:39.308Z,1.90
2023-04-26T03:55:29.519Z,4.03
2023-04-26T03:58:17.752Z,2.80
2023-04-26T04:01:06.917Z,1.77
2023-04-26T04:03:55.447Z,3.50
2023-04-26T04:06:43.899Z,1.63
2023-04-26T04:09:32.084Z,2.40
2023-04-26T04:12:23.104Z,3.90
2023-04-26T04:15:12.370Z,3.20
2023-04-26T04:18:00.614Z,1.93
2023-04-26T04:20:49.197Z,2.87
2023-04-26T04:23:37.482Z,2.20
2023-04-26T04:26:25.869Z,1.93
2023-04-26T04:29:15.995Z,3.10
2023-04-26T04:32:05.253Z,1.33
2023-04-26T04:34:54.009Z,2.60
2023-04-26T04:37:43.915Z,4.00
2023-04-26T04:40:32.239Z,2.30
2023-04-26T04:43:21.539Z,2.50
2023-04-26T04:46:12.701Z,3.40
2023-04-26T04:49:01.813Z,3.53
2023-04-26T04:51:50.127Z,4.00
2023-04-26T04:54:38.616Z,2.97
2023-04-26T04:57:27.027Z,1.70
2023-04-26T05:00:16.458Z,3.23
2023-04-26T05:03:06.184Z,3.00
2023-04-26T05:05:54.481Z,3.60
2023-04-26T05:08:42.715Z,2.37
2023-04-26T05:11:30.951Z,1.60
2023-04-26T05:14:19.172Z,2.27
2023-04-26T05:17:07.715Z,3.00
2023-04-26T05:19:57.467Z,2.60
2023-04-26T05:22:45.821Z,2.63
2023-04-26T05:25:38.432Z,7.30
2023-04-26T05:28:26.946Z,3.63
2023-04-26T05:31:15.211Z,1.60
2023-04-26T05:34:04.050Z,3.37
2023-04-26T05:36:53.665Z,2.00
2023-04-26T05:39:41.898Z,5.15
2023-04-26T05:42:30.256Z,5.90
2023-04-26T05:45:18.766Z,5.13
2023-04-26T05:48:07.727Z,3.53
2023-04-26T05:50:55.929Z,2.83
2023-04-26T05:53:45.511Z,3.57
2023-04-26T05:56:33.746Z,2.87
2023-04-26T05:59:22.068Z,4.17
2023-04-26T06:02:10.337Z,2.63
2023-04-26T06:04:58.737Z,2.50
2023-04-26T06:07:47.294Z,3.10
2023-04-26T06:10:37.524Z,4.13
2023-04-26T06:13:26.283Z,3.47
2023-04-26T06:16:14.569Z,1.93
2023-04-26T06:19:03.260Z,2.60
2023-04-26T06:21:52.212Z,2.90
2023-04-26T06:24:41.102Z,4.67
2023-04-26T06:27:30.969Z,2.10
2023-04-26T06:30:19.359Z,2.70
2023-04-26T06:33:08.994Z,3.33
2023-04-26T06:35:57.323Z,3.00
2023-04-26T06:38:45.549Z,2.50
2023-04-26T06:41:33.744Z,2.37
2023-04-26T06:44:23.492Z,4.57
2023-04-26T06:47:11.784Z,2.10
2023-04-26T06:50:00.015Z,2.43
2023-04-26T06:52:48.274Z,3.63
2023-04-26T06:55:36.668Z,3.80
2023-04-26T06:58:24.930Z,2.17
2023-04-26T07:01:14.732Z,3.33
2023-04-26T07:04:04.583Z,3.67
2023-04-26T07:06:53.151Z,3.10
2023-04-26T07:09:41.821Z,2.27
2023-04-26T07:12:30.129Z,1.93
2023-04-26T07:15:18.349Z,2.20
2023-04-26T07:18:08.117Z,3.90
2023-04-26T07:20:56.421Z,2.90
2023-04-26T07:23:44.667Z,3.57
2023-04-26T07:26:32.915Z,2.40
2023-04-26T07:29:21.443Z,2.20
2023-04-26T07:32:10.007Z,3.10
2023-04-26T07:34:59.702Z,3.20
2023-04-26T07:37:48.302Z,2.67
2023-04-26T07:40:36.590Z,2.73
2023-04-26T07:43:24.880Z,2.20
2023-04-26T07:46:13.200Z,2.83
2023-04-26T07:49:01.459Z,2.37
2023-04-26T07:51:52.492Z,3.33
2023-04-26T07:54:41.129Z,2.70
2023-04-26T07:57:29.370Z,2.83
2023-04-26T08:00:19.031Z,4.50
2023-04-26T08:03:08.348Z,4.07
2023-04-26T08:05:57.049Z,2.37
2023-04-26T08:08:50.673Z,4.57
2023-04-26T08:11:39.098Z,2.27
2023-04-26T08:14:27.353Z,4.53
2023-04-26T08:17:15.700Z,5.90
2023-04-26T08:20:06.036Z,2.90
2023-04-26T08:22:57.978Z,3.90
2023-04-26T08:25:48.127Z,2.80
2023-04-26T08:28:36.770Z,1.70
2023-04-26T08:31:25.067Z,2.50
2023-04-26T08:34:13.759Z,3.00
2023-04-26T08:37:02.245Z,2.53
2023-04-26T08:39:50.554Z,2.10
2023-04-26T08:42:44.048Z,3.57
2023-04-26T08:45:34.801Z,2.97
2023-04-26T08:48:23.206Z,3.50
2023-04-26T08:51:15.801Z,2.80
2023-04-26T08:54:06.548Z,1.60
2023-04-26T08:56:56.382Z,3.37
2023-04-26T08:59:46.695Z,1.93
2023-04-26T09:02:35.560Z,1.97
2023-04-26T09:05:26.745Z,2.77
2023-04-26T09:08:18.384Z,3.60
2023-04-26T09:11:07.299Z,2.40
2023-04-26T09:13:55.620Z,2.23
2023-04-26T09:16:45.401Z,2.10
2023-04-26T09:19:38.164Z,2.33
2023-04-26T09:22:33.673Z,1.67
2023-04-26T09:25:31.950Z,4.67
2023-04-26T09:28:22.488Z,2.07
2023-04-26T09:31:11.427Z,2.37
2023-04-26T09:34:01.882Z,2.40
2023-04-26T09:36:52.277Z,1.73
2023-04-26T09:39:43.609Z,4.53
2023-04-26T09:42:35.668Z,1.80
2023-04-26T09:45:24.111Z,3.47
2023-04-26T09:48:22.157Z,2.00
2023-04-26T09:51:12.760Z,1.83
2023-04-26T09:54:01.382Z,2.40
2023-04-26T09:57:01.835Z,2.27
2023-04-26T09:59:54.368Z,2.60
2023-04-26T10:02:44.214Z,1.97
2023-04-26T10:05:34.151Z,2.63
2023-04-26T10:08:24.357Z,2.17
2023-04-26T10:11:13.966Z,2.20
2023-04-26T10:14:02.299Z,1.80
2023-04-26T10:16:51.419Z,1.93
2023-04-26T10:19:44.047Z,1.93
2023-04-26T10:22:35.541Z,2.50
2023-04-26T10:25:36.437Z,2.57
2023-04-26T10:28:59.993Z,2.53
2023-04-26T10:32:12.229Z,3.53
2023-04-26T10:35:11.411Z,2.00
2023-04-26T10:38:12.270Z,3.47
2023-04-26T10:41:36.380Z,1.70
2023-04-26T10:44:41.733Z,1.90
2023-04-26T10:47:32.578Z,1.60
2023-04-26T10:50:20.982Z,2.50
2023-04-26T10:53:09.418Z,1.63
2023-04-26T10:55:57.890Z,2.10
2023-04-26T10:58:47.924Z,1.53
2023-04-26T11:01:36.248Z,2.43
2023-04-26T11:04:24.601Z,2.30
2023-04-26T11:07:16.282Z,3.73
2023-04-26T11:10:04.702Z,2.37
2023-04-26T11:13:02.202Z,1.83
2023-04-26T11:15:55.737Z,4.80
2023-04-26T11:18:45.898Z,1.57
2023-04-26T11:21:34.643Z,1.60
2023-04-26T11:24:26.986Z,2.97
2023-04-26T11:27:15.254Z,2.80
2023-04-26T11:30:05.557Z,3.00
2023-04-26T11:32:55.177Z,2.30
2023-04-26T11:35:43.510Z,2.03
2023-04-26T11:38:34.049Z,3.87
2023-04-26T11:41:24.721Z,1.70
2023-04-26T11:44:13.480Z,3.67
2023-04-26T11:47:04.066Z,3.07
2023-04-26T11:49:53.706Z,2.13
2023-04-26T11:52:42.848Z,2.30
2023-04-26T11:55:33.347Z,2.33
2023-04-26T11:58:21.602Z,1.90
2023-04-26T12:01:09.950Z,7.03
2023-04-26T12:03:59.698Z,3.20
2023-04-26T12:06:49.848Z,2.60
2023-04-26T12:09:42.485Z,2.40
2023-04-26T12:12:30.769Z,3.97
2023-04-26T12:15:19.944Z,2.07
2023-04-26T12:18:10.556Z,1.67
2023-04-26T12:21:00.402Z,1.90
2023-04-26T12:23:50.080Z,1.77
2023-04-26T12:26:44.795Z,2.63
2023-04-26T12:29:33.497Z,2.90
2023-04-26T12:32:22.714Z,3.53
2023-04-26T12:35:11.254Z,2.03
2023-04-26T12:38:01.357Z,3.00
2023-04-26T12:40:51.529Z,3.67
2023-04-26T12:43:40.018Z,3.70
2023-04-26T12:46:28.356Z,3.10
2023-04-26T12:49:16.635Z,2.10
2023-04-26T12:52:04.897Z,4.03
2023-04-26T12:54:53.109Z,1.83
2023-04-26T12:57:44.749Z,2.17
2023-04-26T13:00:33.308Z,3.40
2023-04-26T13:03:21.799Z,2.13
2023-04-26T13:06:10.363Z,4.77
2023-04-26T13:08:58.609Z,3.33
2023-04-26T13:11:47.017Z,2.20
2023-04-26T13:14:36.871Z,2.10
2023-04-26T13:17:27.120Z,4.33
2023-04-26T13:20:15.619Z,1.63
2023-04-26T13:23:04.256Z,1.40
2023-04-26T13:25:52.990Z,1.63
2023-04-26T13:28:41.292Z,2.40
2023-04-26T13:31:30.992Z,2.13
2023-04-26T13:34:19.253Z,2.10
2023-04-26T13:37:07.738Z,4.50
2023-04-26T13:39:56.111Z,1.67
2023-04-26T13:42:44.383Z,3.27
2023-04-26T13:45:36.832Z,2.00
2023-04-26T13:48:26.761Z,1.83
2023-04-26T13:51:15.550Z,1.47
2023-04-26T13:54:03.881Z,2.03
2023-04-26T13:56:52.520Z,2.27
2023-04-26T13:59:40.762Z,1.90
2023-04-26T14:02:29.427Z,1.43
2023-04-26T14:05:19.403Z,1.60
2023-04-26T14:08:08.200Z,2.50
2023-04-26T14:10:56.427Z,1.57
2023-04-26T14:13:44.690Z,2.10
2023-04-26T14:16:33.009Z,4.50
2023-04-26T14:19:21.556Z,1.70
2023-04-26T14:22:12.995Z,2.30
2023-04-26T14:25:01.394Z,1.53
2023-04-26T14:27:50.225Z,2.13
2023-04-26T14:30:39.221Z,2.60
2023-04-26T14:33:27.956Z,1.83
2023-04-26T14:36:16.241Z,2.57
2023-04-26T14:39:06.022Z,1.97
2023-04-26T14:41:55.524Z,2.33
2023-04-26T14:44:44.072Z,3.47
2023-04-26T14:47:32.405Z,1.90
2023-04-26T14:50:20.818Z,1.87
2023-04-26T14:53:09.889Z,1.73
2023-04-26T14:56:00.292Z,1.60
2023-04-26T14:58:48.805Z,1.30
2023-04-26T15:01:37.439Z,1.60
2023-04-26T15:04:26.382Z,4.13
2023-04-26T15:07:28.727Z,2.50
2023-04-26T15:10:20.673Z,2.13
2023-04-26T15:13:10.360Z,1.70
2023-04-26T15:15:59.011Z,1.80
2023-04-26T15:18:47.501Z,2.43
2023-04-26T15:21:35.880Z,1.60
2023-04-26T15:24:24.821Z,1.97
2023-04-26T15:27:13.094Z,4.80
2023-04-26T15:30:03.770Z,1.40
2023-04-26T15:32:52.101Z,2.23
2023-04-26T15:35:40.350Z,1.83
2023-04-26T15:38:28.715Z,1.70
2023-04-26T15:41:17.305Z,5.00
2023-04-26T15:44:06.032Z,2.70
2023-04-26T15:46:55.963Z,2.57
2023-04-26T15:49:48.396Z,1.60
2023-04-26T15:52:39.619Z,1.77
2023-04-26T15:55:28.548Z,1.43
2023-04-26T15:58:16.790Z,1.67
2023-04-26T16:01:05.416Z,1.60
2023-04-26T16:03:55.793Z,2.50
2023-04-26T16:06:44.256Z,1.60
2023-04-26T16:09:32.794Z,2.77
2023-04-26T16:12:21.348Z,2.10
2023-04-26T16:15:10.961Z,2.00
2023-04-26T16:17:59.236Z,1.70
2023-04-26T16:20:49.145Z,1.90
2023-04-26T16:23:38.124Z,4.33
2023-04-26T16:26:27.422Z,3.10
2023-04-26T16:29:15.700Z,3.80
2023-04-26T16:32:04.089Z,16.40
2023-04-26T16:34:52.651Z,32.03
2023-04-26T16:37:44.378Z,41.20
2023-04-26T16:40:32.629Z,38.90
2023-04-26T16:43:21.081Z,34.83
2023-04-26T16:46:09.986Z,29.30
2023-04-26T16:48:58.260Z,28.33
2023-04-26T16:51:51.547Z,23.83
2023-04-26T16:54:41.129Z,18.00
2023-04-26T16:57:29.452Z,16.97
2023-04-26T17:00:18.636Z,14.73
2023-04-26T17:03:07.460Z,12.93
2023-04-26T17:05:55.888Z,11.63
2023-04-26T17:08:44.301Z,10.80
2023-04-26T17:11:34.810Z,9.10
2023-04-26T17:14:23.619Z,7.50
2023-04-26T17:17:11.901Z,8.20
2023-04-26T17:20:00.088Z,6.40
2023-04-26T17:22:48.500Z,6.20
2023-04-26T17:25:36.956Z,7.17
2023-04-26T17:28:26.862Z,12.40
2023-04-26T17:31:15.147Z,14.93
2023-04-26T17:34:04.859Z,13.07
2023-04-26T17:36:53.607Z,14.90
2023-04-26T17:39:41.927Z,13.10
2023-04-26T17:42:30.147Z,11.07
2023-04-26T17:45:19.724Z,11.90
2023-04-26T17:48:12.902Z,9.70
2023-04-26T17:51:01.345Z,9.20
2023-04-26T17:53:50.100Z,11.30
2023-04-26T17:56:38.511Z,9.60
2023-04-26T17:59:26.808Z,8.80
2023-04-26T18:02:16.529Z,9.17
2023-04-26T18:05:05.100Z,8.60
2023-04-26T18:07:53.455Z,11.20
2023-04-26T18:10:41.762Z,9.83
2023-04-26T18:13:30.024Z,7.67
2023-04-26T18:16:18.311Z,8.90
2023-04-26T18:19:08.171Z,7.90
2023-04-26T18:21:56.398Z,8.90
2023-04-26T18:24:44.749Z,8.07
2023-04-26T18:27:33.279Z,9.90
2023-04-26T18:30:21.677Z,7.27
2023-04-26T18:33:10.016Z,7.93
2023-04-26T18:35:59.584Z,8.50
2023-04-26T18:38:47.824Z,6.47
2023-04-26T18:41:36.152Z,6.63
2023-04-26T18:44:24.405Z,5.57
2023-04-26T18:47:12.762Z,6.47
2023-04-26T18:50:01.706Z,7.80
2023-04-26T18:52:51.500Z,6.17
2023-04-26T18:55:39.761Z,6.93
2023-04-26T18:58:28.106Z,5.20
2023-04-26T19:01:16.644Z,4.23
2023-04-26T19:04:05.200Z,5.40
2023-04-26T19:06:53.658Z,3.30
2023-04-26T19:09:53.542Z,4.73
2023-04-26T19:12:42.702Z,3.20
2023-04-26T19:15:31.127Z,6.37
2023-04-26T19:18:19.602Z,2.90
2023-04-26T19:21:09.332Z,3.70
2023-04-26T19:23:58.411Z,2.87
2023-04-26T19:26:47.995Z,3.43
2023-04-26T19:29:39.235Z,3.50
2023-04-26T19:32:27.599Z,2.70
2023-04-26T19:35:16.591Z,2.67
2023-04-26T19:38:07.050Z,2.27
2023-04-26T19:40:55.351Z,4.17
2023-04-26T19:43:45.261Z,3.93
2023-04-26T19:46:34.029Z,2.43
2023-04-26T19:49:22.389Z,2.83
2023-04-26T19:52:10.681Z,2.13
2023-04-26T19:54:58.971Z,2.20
2023-04-26T19:57:47.861Z,2.53
2023-04-26T20:00:38.763Z,1.80
2023-04-26T20:03:27.510Z,3.07
2023-04-26T20:06:15.911Z,2.60
2023-04-26T20:09:05.091Z,3.53
2023-04-26T20:11:53.620Z,2.93
2023-04-26T20:14:42.620Z,3.00
2023-04-26T20:17:32.302Z,3.67
2023-04-26T20:20:21.346Z,5.57
2023-04-26T20:23:09.841Z,6.83
2023-04-26T20:25:58.236Z,7.97
2023-04-26T20:28:47.870Z,2.13
2023-04-26T20:31:36.202Z,2.43
2023-04-26T20:34:25.948Z,3.10
2023-04-26T20:37:14.229Z,3.33
2023-04-26T20:40:02.920Z,3.43
2023-04-26T20:42:51.366Z,2.37
2023-04-26T20:45:40.951Z,3.67
2023-04-26T20:48:29.166Z,2.43
2023-04-26T20:51:18.779Z,3.23
2023-04-26T20:54:07.131Z,3.30
2023-04-26T20:56:55.584Z,4.10
2023-04-26T20:59:43.835Z,1.80
2023-04-26T21:02:32.256Z,2.00
2023-04-26T21:05:20.851Z,2.00
2023-04-26T21:08:10.472Z,3.03
2023-04-26T21:10:58.727Z,2.20
2023-04-26T21:13:48.249Z,2.13
2023-04-26T21:16:36.695Z,2.50
2023-04-26T21:19:25.060Z,2.03
2023-04-26T21:22:13.440Z,2.83
2023-04-26T21:25:04.157Z,2.83
2023-04-26T21:27:52.371Z,2.63
2023-04-26T21:30:40.600Z,2.10
2023-04-26T21:33:29.019Z,3.23
2023-04-26T21:36:17.433Z,2.60
2023-04-26T21:39:05.748Z,4.00
2023-04-26T21:41:55.485Z,2.23
2023-04-26T21:44:43.761Z,2.90
2023-04-26T21:47:32.075Z,2.03
2023-04-26T21:50:20.628Z,1.90
2023-04-26T21:53:08.786Z,3.80
2023-04-26T21:55:57.072Z,1.90
2023-04-26T21:58:46.774Z,2.10
2023-04-26T22:01:35.094Z,3.13
2023-04-26T22:04:23.485Z,1.83
2023-04-26T22:07:12.064Z,2.10
2023-04-26T22:10:00.412Z,2.10
2023-04-26T22:12:48.643Z,1.73
2023-04-26T22:15:38.443Z,4.10
2023-04-26T22:18:27.129Z,1.60
2023-04-26T22:21:15.632Z,2.17
2023-04-26T22:24:04.111Z,2.00
2023-04-26T22:26:52.384Z,2.17
2023-04-26T22:29:40.580Z,2.70
2023-04-26T22:32:30.292Z,1.60
2023-04-26T22:35:18.568Z,1.47
2023-04-26T22:38:06.915Z,1.73
2023-04-26T22:40:55.545Z,1.83
2023-04-26T22:43:44.993Z,1.53
2023-04-26T22:46:34.302Z,2.53
2023-04-26T22:49:24.024Z,1.90
2023-04-26T22:52:20.357Z,2.07
2023-04-26T22:55:16.421Z,1.67
2023-04-26T22:58:04.737Z,2.30
2023-04-26T23:00:53.016Z,3.33
2023-04-26T23:03:41.531Z,1.50
2023-04-26T23:06:31.996Z,4.60
2023-04-26T23:09:20.435Z,3.87
2023-04-26T23:12:08.703Z,1.97
2023-04-26T23:14:58.107Z,5.60
2023-04-26T23:17:46.782Z,3.30
2023-04-26T23:20:34.984Z,1.40
2023-04-26T23:23:24.632Z,2.20
2023-04-26T23:26:12.796Z,1.70
2023-04-26T23:29:01.113Z,1.87
2023-04-26T23:31:49.457Z,1.80
2023-04-26T23:34:37.945Z,2.13
2023-04-26T23:37:26.242Z,2.13
2023-04-26T23:40:16.233Z,2.80
2023-04-26T23:43:06.216Z,1.47
2023-04-26T23:45:54.676Z,2.80
2023-04-26T23:48:42.995Z,2.07
2023-04-26T23:51:31.494Z,1.73
2023-04-26T23:54:19.795Z,2.23
2023-04-26T23:57:09.442Z,1.50
2023-04-26T23:59:57.710Z,1.77
